Time;durP1;ratioP1;P1;durP2;ratioP2;P2;SDS_P1;SDS_P2;PMS_P1;PMS_P2;Temp;Humidity;BMP_temperature;BMP_pressure;BME280_temperature;BME280_humidity;BME280_pressure;Samples;Min_cycle;Max_cycle;Signal;HPM_P1;HPM_P2
2022/02/27 00:01:36;;;;;;;;;;;;;;;28.95;58.89;101170.13;4978296;27;70686;-41
2022/02/27 00:04:06;;;;;;;;;;;;;;;28.99;59.02;101180.53;4990453;27;66379;-41
2022/02/27 00:06:36;;;;;;;;;;;;;;;29.02;59.37;101186.34;4975674;28;69740;-41
2022/02/27 00:09:06;;;;;;;;;;;;;;;29.05;59.11;101182.47;4970955;28;66101;-40
2022/02/27 00:11:35;;;;;;;;;;;;;;;29.07;59.87;101178.53;4973941;28;70209;-40
2022/02/27 00:14:05;;;;;;;;;;;;;;;29.12;60.03;101175.22;4974876;28;66732;-40
2022/02/27 00:16:35;;;;;;;;;;;;;;;29.13;60.21;101172.31;4974452;28;69697;-40
2022/02/27 00:19:05;;;;;;;;;;;;;;;29.17;60.21;101183.56;4978003;27;65976;-40
2022/02/27 00:21:35;;;;;;;;;;;;;;;29.20;60.53;101183.16;4958179;28;69942;-40
2022/02/27 00:24:05;;;;;;;;;;;;;;;29.22;60.64;101189.19;4974289;28;66671;-40
2022/02/27 00:26:35;;;;;;;;;;;;;;;29.26;61.07;101190.47;4975397;28;69399;-40
2022/02/27 00:29:05;;;;;;;;;;;;;;;29.28;60.80;101191.09;4978862;27;66134;-40
2022/02/27 00:31:36;;;;;;;;;;;;;;;29.30;60.54;101199.81;4964107;28;69302;-41
2022/02/27 00:34:06;;;;;;;;;;;;;;;29.32;60.36;101203.16;4976721;28;65694;-40
2022/02/27 00:36:36;;;;;;;;;;;;;;;29.29;60.97;101198.16;4978461;28;69803;-40
2022/02/27 00:39:07;;;;;;;;;;;;;;;29.30;60.73;101199.81;4993208;28;66601;-39
2022/02/27 00:41:38;;;;;;;;;;;;;;;29.31;60.67;101204.19;4967961;28;70920;-39
2022/02/27 00:44:08;;;;;;;;;;;;;;;29.32;60.91;101203.16;4976791;28;65797;-39
2022/02/27 00:46:38;;;;;;;;;;;;;;;29.34;61.18;101211.06;4975187;28;70053;-40
2022/02/27 00:49:08;;;;;;;;;;;;;;;29.37;61.47;101216.91;4959844;27;66077;-39
2022/02/27 00:51:37;;;;;;;;;;;;;;;29.37;61.44;101216.91;4977543;28;70776;-40
2022/02/27 00:54:07;;;;;;;;;;;;;;;29.40;61.76;101210.25;4975659;27;66064;-40
2022/02/27 00:56:37;;;;;;;;;;;;;;;29.44;61.27;101216.06;4971560;28;70377;-40
2022/02/27 00:59:07;;;;;;;;;;;;;;;29.47;61.38;101212.97;4976968;28;66784;-40
2022/02/27 01:01:38;;;;;;;;;;;;;;;29.47;61.46;101221.91;4977999;27;69555;-40
2022/02/27 01:04:08;;;;;;;;;;;;;;;29.46;61.52;101225.66;4977621;27;66892;-40
2022/02/27 01:06:38;;;;;;;;;;;;;;;29.49;61.38;101230.66;4966209;28;70838;-40
2022/02/27 01:09:11;;;;;;;;;;;;;;;29.49;61.63;101235.22;4978046;28;66614;-40
2022/02/27 01:11:41;;;;;;;;;;;;;;;29.51;61.70;101243.97;5024962;28;70336;-40
2022/02/27 01:14:11;;;;;;;;;;;;;;;29.51;61.23;101233.16;4975787;28;65531;-41
2022/02/27 01:16:41;;;;;;;;;;;;;;;29.53;60.33;101245.44;4974685;28;70446;-40
2022/02/27 01:19:11;;;;;;;;;;;;;;;29.49;59.77;101240.63;4978139;28;66896;-39
2022/02/27 01:21:40;;;;;;;;;;;;;;;29.48;59.41;101244.38;4979532;28;70313;-41
2022/02/27 01:24:10;;;;;;;;;;;;;;;29.50;59.07;101258.50;4978163;28;66553;-40
2022/02/27 01:26:40;;;;;;;;;;;;;;;29.46;58.42;101252.69;4976537;28;70545;-40
2022/02/27 01:29:09;;;;;;;;;;;;;;;29.45;58.91;101256.44;4976892;28;66661;-39
2022/02/27 01:31:39;;;;;;;;;;;;;;;29.47;58.32;101259.75;4980453;27;70391;-40
2022/02/27 01:34:11;;;;;;;;;;;;;;;29.51;58.53;101257.50;4974955;28;65642;-40
2022/02/27 01:36:43;;;;;;;;;;;;;;;29.52;57.95;101267.25;4975714;28;69777;-40
2022/02/27 01:39:13;;;;;;;;;;;;;;;29.50;58.03;101267.44;4994914;27;66297;-39
2022/02/27 01:41:45;;;;;;;;;;;;;;;29.56;57.73;101279.31;5059252;27;69914;-41
2022/02/27 01:44:16;;;;;;;;;;;;;;;29.55;57.58;101273.09;4971742;28;67139;-39
2022/02/27 01:46:57;;;;;;;;;;;;;;;29.59;57.16;101276.25;4976763;28;69953;-45
2022/02/27 01:49:28;;;;;;;;;;;;;;;29.40;57.09;101242.69;4974661;28;66634;-43
2022/02/27 01:52:05;;;;;;;;;;;;;;;29.67;56.68;101280.66;4975732;28;70358;-39
2022/02/27 01:54:35;;;;;;;;;;;;;;;29.71;55.77;101282.75;4976280;28;66787;-40
2022/02/27 01:57:04;;;;;;;;;;;;;;;29.73;56.80;101290.69;4976252;28;69918;-41
2022/02/27 01:59:39;;;;;;;;;;;;;;;29.75;56.76;101293.97;4972184;28;66265;-43
2022/02/27 02:02:14;;;;;;;;;;;;;;;29.80;57.08;101292.34;4956250;28;68763;-41
2022/02/27 02:04:54;;;;;;;;;;;;;;;29.82;56.62;101295.69;4954777;28;65707;-40
2022/02/27 02:07:24;;;;;;;;;;;;;;;29.85;56.02;101297.16;4972947;28;69132;-39
2022/02/27 02:09:53;;;;;;;;;;;;;;;29.89;55.44;101294.84;4967173;28;67472;-38
2022/02/27 02:12:23;;;;;;;;;;;;;;;29.92;55.83;101294.44;4980664;27;69116;-45
2022/02/27 02:14:55;;;;;;;;;;;;;;;29.90;55.13;101296.53;4986772;27;66378;-39
2022/02/27 02:17:25;;;;;;;;;;;;;;;29.94;54.08;101300.50;4961491;28;69519;-47
2022/02/27 02:19:55;;;;;;;;;;;;;;;29.97;53.79;101292.81;4955199;28;65590;-40
2022/02/27 02:22:25;;;;;;;;;;;;;;;29.99;53.98;101300.72;4957964;28;69341;-40
2022/02/27 02:24:55;;;;;;;;;;;;;;;30.04;53.67;101303.66;4974142;28;66621;-39
2022/02/27 02:27:25;;;;;;;;;;;;;;;30.06;53.32;101301.56;4972915;28;70275;-40
2022/02/27 02:29:56;;;;;;;;;;;;;;;30.09;53.22;101306.59;4958680;28;66201;-39
2022/02/27 02:32:26;;;;;;;;;;;;;;;30.09;52.35;101301.16;4975788;27;70048;-38
2022/02/27 02:34:56;;;;;;;;;;;;;;;30.12;52.82;101305.34;4971888;28;65597;-39
2022/02/27 02:37:27;;;;;;;;;;;;;;;30.13;52.95;101305.13;4976688;28;70196;-41
2022/02/27 02:39:57;;;;;;;;;;;;;;;30.16;52.11;101306.59;4974530;28;66886;-40
2022/02/27 02:42:27;;;;;;;;;;;;;;;30.21;52.59;101306.81;4969360;28;69155;-39
2022/02/27 02:44:57;;;;;;;;;;;;;;;30.23;51.51;101305.59;4976537;28;65761;-40
2022/02/27 02:47:27;;;;;;;;;;;;;;;30.27;51.85;101306.00;4963189;28;70253;-40
2022/02/27 02:49:57;;;;;;;;;;;;;;;30.33;51.47;101307.88;4974045;28;66642;-40
2022/02/27 02:52:27;;;;;;;;;;;;;;;30.33;51.64;101309.75;4976305;28;70044;-45
2022/02/27 02:54:58;;;;;;;;;;;;;;;30.38;50.99;101304.56;4965233;28;65172;-40
2022/02/27 02:57:28;;;;;;;;;;;;;;;30.44;50.54;101306.44;4975092;28;70165;-40
2022/02/27 03:00:00;;;;;;;;;;;;;;;30.49;50.01;101295.84;4976919;28;66454;-40
2022/02/27 03:02:31;;;;;;;;;;;;;;;30.53;50.12;101293.53;4976839;28;71650;-41
2022/02/27 03:05:05;;;;;;;;;;;;;;;30.58;49.56;101285.63;4978900;27;66715;-41
2022/02/27 03:07:36;;;;;;;;;;;;;;;30.57;50.75;101290.22;4977105;28;69683;-39
2022/02/27 03:10:07;;;;;;;;;;;;;;;30.59;50.49;101285.44;4976955;28;67559;-41
2022/02/27 03:12:37;;;;;;;;;;;;;;;30.62;50.27;101285.00;4977757;28;70441;-41
2022/02/27 03:15:08;;;;;;;;;;;;;;;30.66;49.61;101288.13;4976774;28;66523;-40
2022/02/27 03:17:38;;;;;;;;;;;;;;;30.68;49.13;101284.16;4977219;27;70707;-39
2022/02/27 03:20:16;;;;;;;;;;;;;;;30.77;49.00;101282.06;4978369;28;66691;-41
2022/02/27 03:22:47;;;;;;;;;;;;;;;30.77;48.95;101281.25;4938485;28;69701;-41
2022/02/27 03:25:17;;;;;;;;;;;;;;;30.79;49.05;101269.16;4968441;28;65462;-41
2022/02/27 03:27:47;;;;;;;;;;;;;;;30.84;49.75;101271.25;4970717;28;70248;-41
2022/02/27 03:30:17;;;;;;;;;;;;;;;30.83;49.85;101258.75;4972522;28;66528;-40
2022/02/27 03:32:46;;;;;;;;;;;;;;;30.82;50.24;101259.81;4972413;28;70066;-41
2022/02/27 03:35:17;;;;;;;;;;;;;;;30.88;50.20;101256.25;4975084;28;66544;-41
2022/02/27 03:37:50;;;;;;;;;;;;;;;30.93;49.86;101251.03;4973432;28;70227;-39
2022/02/27 03:40:20;;;;;;;;;;;;;;;30.97;49.96;101252.25;4973260;28;66761;-40
2022/02/27 03:42:50;;;;;;;;;;;;;;;31.04;49.27;101244.97;4975267;28;70135;-40
2022/02/27 03:45:20;;;;;;;;;;;;;;;31.01;50.04;101237.25;4970992;28;66576;-41
2022/02/27 03:47:50;;;;;;;;;;;;;;;31.03;50.41;101221.59;4973475;28;70269;-42
2022/02/27 03:50:20;;;;;;;;;;;;;;;31.04;51.07;101211.63;4976637;28;66306;-41
2022/02/27 03:52:50;;;;;;;;;;;;;;;31.02;52.33;101206.41;4982524;28;69944;-42
2022/02/27 03:55:20;;;;;;;;;;;;;;;31.04;52.36;101215.16;4967427;27;67010;-42
2022/02/27 03:57:50;;;;;;;;;;;;;;;31.07;52.39;101205.78;4972577;28;70697;-42
2022/02/27 04:00:20;;;;;;;;;;;;;;;31.09;52.73;101199.09;4976865;28;66377;-41
2022/02/27 04:02:49;;;;;;;;;;;;;;;31.09;52.80;101193.69;4997604;27;70617;-41
2022/02/27 04:05:21;;;;;;;;;;;;;;;31.13;52.69;101183.22;4977314;28;65257;-41
2022/02/27 04:07:50;;;;;;;;;;;;;;;31.21;51.89;101163.19;4962007;28;70322;-43
2022/02/27 04:10:21;;;;;;;;;;;;;;;31.22;52.50;101171.09;4973355;28;65520;-41
2022/02/27 04:12:52;;;;;;;;;;;;;;;31.27;51.42;101173.16;4974720;28;69447;-43
2022/02/27 04:15:23;;;;;;;;;;;;;;;31.27;51.88;101168.56;4976954;28;66667;-44
2022/02/27 04:17:53;;;;;;;;;;;;;;;31.15;52.06;101135.91;4975140;28;70572;-41
2022/02/27 04:20:24;;;;;;;;;;;;;;;31.26;51.98;101149.81;4963712;28;65927;-43
2022/02/27 04:22:54;;;;;;;;;;;;;;;31.30;51.20;101151.06;4975317;28;69096;-43
2022/02/27 04:25:25;;;;;;;;;;;;;;;31.34;50.52;101149.56;4973922;28;66671;-40
2022/02/27 04:27:58;;;;;;;;;;;;;;;31.37;50.68;101141.00;4975013;28;69967;-41
2022/02/27 04:30:28;;;;;;;;;;;;;;;31.37;51.13;101130.16;4968024;28;66803;-41
2022/02/27 04:32:58;;;;;;;;;;;;;;;31.37;50.76;101127.47;4974393;28;70088;-41
2022/02/27 04:35:29;;;;;;;;;;;;;;;31.48;49.38;101115.09;4962672;28;65795;-42
2022/02/27 04:37:59;;;;;;;;;;;;;;;31.47;48.84;101108.84;4974444;28;69445;-41
2022/02/27 04:40:33;;;;;;;;;;;;;;;31.54;48.71;101104.22;4969497;28;66241;-41
2022/02/27 04:43:03;;;;;;;;;;;;;;;31.57;48.35;101098.34;4975500;28;70292;-41
2022/02/27 04:45:33;;;;;;;;;;;;;;;31.65;47.52;101104.53;4975872;28;65455;-43
2022/02/27 04:48:04;;;;;;;;;;;;;;;31.72;47.44;101094.50;4976036;28;69475;-42
2022/02/27 04:50:33;;;;;;;;;;;;;;;31.77;47.21;101098.19;4971427;28;65221;-41
2022/02/27 04:53:04;;;;;;;;;;;;;;;31.85;47.07;101091.66;4961259;28;70136;-43
2022/02/27 04:55:34;;;;;;;;;;;;;;;31.86;47.57;101085.19;4979214;28;65728;-41
2022/02/27 04:58:04;;;;;;;;;;;;;;;31.89;47.85;101073.88;4971919;28;70510;-42
2022/02/27 05:00:36;;;;;;;;;;;;;;;31.92;47.71;101068.03;4961319;28;65657;-41
2022/02/27 05:03:06;;;;;;;;;;;;;;;31.93;47.28;101069.72;4977377;28;70789;-41
2022/02/27 05:05:38;;;;;;;;;;;;;;;32.03;46.42;101059.16;4966296;28;66233;-42
2022/02/27 05:08:08;;;;;;;;;;;;;;;32.06;46.88;101052.47;4987359;28;70694;-41
2022/02/27 05:10:39;;;;;;;;;;;;;;;32.04;47.80;101051.88;4978313;28;66646;-41
2022/02/27 05:13:09;;;;;;;;;;;;;;;32.04;47.89;101044.56;4976586;28;69484;-40
2022/02/27 05:15:40;;;;;;;;;;;;;;;32.05;48.65;101027.22;4976921;28;66460;-43
2022/02/27 05:18:10;;;;;;;;;;;;;;;31.97;48.87;101027.50;4978075;28;70154;-45
2022/02/27 05:20:42;;;;;;;;;;;;;;;31.81;48.07;101030.75;4976849;28;65920;-46
2022/02/27 05:23:16;;;;;;;;;;;;;;;31.58;47.09;101018.66;4977896;28;69142;-43
2022/02/27 05:25:46;;;;;;;;;;;;;;;31.41;45.75;101012.13;4966155;28;65636;-43
2022/02/27 05:28:16;;;;;;;;;;;;;;;31.24;45.54;101008.28;4974505;28;70069;-41
2022/02/27 05:30:45;;;;;;;;;;;;;;;31.07;44.56;101000.69;4976932;28;66121;-42
2022/02/27 05:33:15;;;;;;;;;;;;;;;30.98;44.23;101001.16;4976378;28;69973;-41
2022/02/27 05:35:46;;;;;;;;;;;;;;;30.86;43.20;100999.13;4976514;28;65135;-41
2022/02/27 05:38:16;;;;;;;;;;;;;;;30.77;43.36;100994.19;4959736;28;70202;-41
2022/02/27 05:40:48;;;;;;;;;;;;;;;30.68;42.66;100980.06;4976268;28;66429;-39
2022/02/27 05:43:17;;;;;;;;;;;;;;;30.60;42.75;100973.00;4975276;28;70134;-40
2022/02/27 05:45:49;;;;;;;;;;;;;;;30.55;42.01;100964.72;4977309;28;67282;-44
2022/02/27 05:48:19;;;;;;;;;;;;;;;30.51;42.27;100968.91;4977170;28;69846;-40
2022/02/27 05:50:51;;;;;;;;;;;;;;;30.47;41.67;100962.25;4976747;28;66158;-42
2022/02/27 05:53:22;;;;;;;;;;;;;;;30.41;40.98;100963.13;4977894;27;70836;-40
2022/02/27 05:55:56;;;;;;;;;;;;;;;30.37;40.96;100956.44;4977896;28;65079;-42
2022/02/27 05:58:27;;;;;;;;;;;;;;;30.33;41.37;100949.81;4974026;28;70044;-41
2022/02/27 06:00:58;;;;;;;;;;;;;;;30.28;40.38;100947.75;4975551;28;66433;-41
2022/02/27 06:03:28;;;;;;;;;;;;;;;30.26;40.44;100941.75;4976087;28;70317;-40
2022/02/27 06:05:58;;;;;;;;;;;;;;;30.30;40.44;100931.31;4977069;28;66805;-41
2022/02/27 06:08:27;;;;;;;;;;;;;;;30.32;40.20;100923.81;4967500;28;70109;-41
2022/02/27 06:10:57;;;;;;;;;;;;;;;30.31;39.92;100924.84;4967135;28;66831;-41
2022/02/27 06:13:27;;;;;;;;;;;;;;;30.30;39.38;100913.19;4989783;28;69631;-41
2022/02/27 06:15:58;;;;;;;;;;;;;;;30.30;39.43;100901.56;4981843;27;67093;-41
2022/02/27 06:18:28;;;;;;;;;;;;;;;30.28;38.97;100899.91;4968237;28;69296;-41
2022/02/27 06:21:00;;;;;;;;;;;;;;;30.28;38.82;100904.47;4980856;28;66137;-42
2022/02/27 06:23:29;;;;;;;;;;;;;;;30.25;38.63;100889.47;4980538;28;70270;-40
2022/02/27 06:26:01;;;;;;;;;;;;;;;30.24;38.34;100877.00;4979448;28;66196;-41
2022/02/27 06:28:30;;;;;;;;;;;;;;;30.24;38.45;100881.59;4984791;28;69119;-41
2022/02/27 06:31:02;;;;;;;;;;;;;;;30.24;38.42;100877.00;4987251;28;66438;-41
2022/02/27 06:33:32;;;;;;;;;;;;;;;30.23;38.19;100875.38;4980729;28;70814;-40
2022/02/27 06:36:04;;;;;;;;;;;;;;;30.23;38.07;100871.84;4979564;28;66413;-41
2022/02/27 06:38:37;;;;;;;;;;;;;;;30.22;38.25;100862.84;4981823;28;70570;-41
2022/02/27 06:41:07;;;;;;;;;;;;;;;30.21;38.02;100850.34;4973777;28;66616;-41
2022/02/27 06:43:39;;;;;;;;;;;;;;;30.20;38.32;100848.72;4981180;27;68979;-41
2022/02/27 06:46:10;;;;;;;;;;;;;;;30.17;37.90;100846.44;4980286;28;66821;-41
2022/02/27 06:48:40;;;;;;;;;;;;;;;30.18;37.75;100839.97;4982380;28;70235;-41
2022/02/27 06:51:09;;;;;;;;;;;;;;;30.16;37.78;100842.06;4972582;28;66887;-41
2022/02/27 06:53:40;;;;;;;;;;;;;;;30.19;37.75;100846.22;4972683;28;70743;-40
2022/02/27 06:56:10;;;;;;;;;;;;;;;30.19;37.81;100841.63;4977712;28;65583;-41
2022/02/27 06:58:40;;;;;;;;;;;;;;;30.19;37.82;100830.78;4978365;27;70498;-39
2022/02/27 07:01:12;;;;;;;;;;;;;;;30.21;37.91;100836.84;4964219;28;65556;-40
2022/02/27 07:03:42;;;;;;;;;;;;;;;30.22;38.43;100824.16;4979227;28;69935;-40
2022/02/27 07:06:13;;;;;;;;;;;;;;;30.26;38.09;100823.50;4983715;28;66048;-41
2022/02/27 07:08:43;;;;;;;;;;;;;;;30.26;38.18;100812.69;4985586;27;70253;-39
2022/02/27 07:11:14;;;;;;;;;;;;;;;30.27;38.54;100811.63;4965691;28;66433;-40
2022/02/27 07:13:47;;;;;;;;;;;;;;;30.26;38.19;100804.56;4978680;28;69272;-41
2022/02/27 07:16:22;;;;;;;;;;;;;;;30.30;38.11;100804.13;4976384;28;65684;-40
2022/02/27 07:18:57;;;;;;;;;;;;;;;30.30;38.68;100798.72;4989616;28;70614;-41
2022/02/27 07:21:27;;;;;;;;;;;;;;;30.33;38.63;100798.28;4979109;28;65361;-41
2022/02/27 07:23:57;;;;;;;;;;;;;;;30.35;38.48;100797.03;4975923;28;70179;-41
2022/02/27 07:26:27;;;;;;;;;;;;;;;30.36;38.00;100792.44;4968431;28;67106;-40
2022/02/27 07:28:57;;;;;;;;;;;;;;;30.39;38.22;100783.88;4977648;27;69217;-40
2022/02/27 07:31:27;;;;;;;;;;;;;;;30.42;38.13;100786.13;4978658;27;66632;-41
2022/02/27 07:34:00;;;;;;;;;;;;;;;30.43;38.66;100776.97;4971101;28;69973;-43
2022/02/27 07:36:31;;;;;;;;;;;;;;;30.45;38.60;100769.44;4973071;28;65606;-40
2022/02/27 07:39:07;;;;;;;;;;;;;;;30.47;38.35;100762.78;4952776;28;71664;-40
2022/02/27 07:41:39;;;;;;;;;;;;;;;30.50;38.33;100758.81;4975391;28;65907;-41
2022/02/27 07:44:08;;;;;;;;;;;;;;;30.54;38.53;100757.31;4973622;28;70088;-42
2022/02/27 07:46:38;;;;;;;;;;;;;;;30.54;38.33;100751.91;4954759;28;64883;-40
2022/02/27 07:49:09;;;;;;;;;;;;;;;30.53;37.84;100755.66;4975206;28;70579;-40
2022/02/27 07:51:38;;;;;;;;;;;;;;;30.56;38.27;100754.38;4970528;28;66510;-41
2022/02/27 07:54:09;;;;;;;;;;;;;;;30.58;37.93;100747.69;4945863;28;69837;-40
2022/02/27 07:56:39;;;;;;;;;;;;;;;30.57;37.70;100756.88;4969440;28;65534;-41
2022/02/27 07:59:09;;;;;;;;;;;;;;;30.59;37.65;100743.97;4968843;28;70211;-40
2022/02/27 08:01:43;;;;;;;;;;;;;;;30.62;37.85;100754.34;4973813;28;66343;-43
2022/02/27 08:04:15;;;;;;;;;;;;;;;30.65;37.42;100743.06;4974787;28;69084;-39
2022/02/27 08:06:45;;;;;;;;;;;;;;;30.69;37.35;100755.09;4972489;28;66789;-38
2022/02/27 08:09:14;;;;;;;;;;;;;;;30.72;37.52;100743.81;4969210;28;69123;-41
2022/02/27 08:11:44;;;;;;;;;;;;;;;30.78;38.12;100750.22;4973876;28;66080;-41
2022/02/27 08:14:15;;;;;;;;;;;;;;;30.82;37.81;100742.53;4970118;28;69831;-42
2022/02/27 08:16:59;;;;;;;;;;;;;;;30.84;37.07;100756.66;4954424;28;67127;-41
2022/02/27 08:19:30;;;;;;;;;;;;;;;30.87;37.22;100750.78;4947694;28;70149;-44
2022/02/27 08:21:59;;;;;;;;;;;;;;;30.88;37.13;100747.03;4972268;28;65631;-41
2022/02/27 08:24:29;;;;;;;;;;;;;;;30.92;37.35;100749.09;4975537;28;70210;-40
2022/02/27 08:26:59;;;;;;;;;;;;;;;30.94;37.53;100740.72;4973007;28;66675;-41
2022/02/27 08:29:29;;;;;;;;;;;;;;;30.99;37.37;100748.19;4973242;28;70299;-40
2022/02/27 08:31:59;;;;;;;;;;;;;;;31.02;37.22;100742.31;4975901;28;65817;-42
2022/02/27 08:34:30;;;;;;;;;;;;;;;31.05;36.98;100731.03;4976772;28;70241;-44
2022/02/27 08:37:00;;;;;;;;;;;;;;;31.07;37.37;100746.00;4974532;28;66154;-42
2022/02/27 08:39:37;;;;;;;;;;;;;;;31.11;37.39;100757.22;4941337;28;69633;-43
2022/02/27 08:42:07;;;;;;;;;;;;;;;31.43;38.71;100744.38;4954933;28;65350;-44
2022/02/27 08:44:39;;;;;;;;;;;;;;;31.53;44.05;100750.06;4955691;28;69784;-42
2022/02/27 08:47:09;;;;;;;;;;;;;;;31.65;46.23;100747.44;4973656;28;66182;-43
2022/02/27 08:49:43;;;;;;;;;;;;;;;31.77;48.09;100744.78;4954374;28;69155;-42
2022/02/27 08:52:16;;;;;;;;;;;;;;;31.92;49.15;100756.06;4960107;28;67082;-47
2022/02/27 08:54:56;;;;;;;;;;;;;;;32.15;50.10;100749.91;4932543;28;70762;-43
2022/02/27 08:57:30;;;;;;;;;;;;;;;32.34;51.06;100749.81;4945003;28;65580;-40
2022/02/27 09:00:04;;;;;;;;;;;;;;;32.38;51.34;100745.56;4977799;28;70295;-48
2022/02/27 09:02:34;;;;;;;;;;;;;;;32.55;51.41;100762.84;4937375;28;65742;-38
2022/02/27 09:05:05;;;;;;;;;;;;;;;32.71;51.50;100745.03;4973949;28;70115;-40
2022/02/27 09:07:36;;;;;;;;;;;;;;;32.83;51.54;100748.56;4975087;28;65636;-40
2022/02/27 09:10:08;;;;;;;;;;;;;;;32.97;50.95;100749.16;4976414;28;69697;-39
2022/02/27 09:12:43;;;;;;;;;;;;;;;33.12;50.99;100751.41;4977530;28;66444;-39
2022/02/27 09:15:13;;;;;;;;;;;;;;;33.25;51.13;100756.59;4977489;27;70572;-39
2022/02/27 09:17:43;;;;;;;;;;;;;;;33.31;51.02;100761.06;4976740;28;66592;-39
2022/02/27 09:20:14;;;;;;;;;;;;;;;33.44;50.75;100756.44;4977577;28;70285;-38
2022/02/27 09:22:43;;;;;;;;;;;;;;;33.53;51.27;100758.56;4977461;28;65548;-38
2022/02/27 09:25:13;;;;;;;;;;;;;;;33.60;52.05;100753.00;4975917;28;69679;-39
2022/02/27 09:28:03;;;;;;;;;;;;;;;33.62;51.47;100756.28;4977817;28;66377;-40
2022/02/27 09:30:33;;;;;;;;;;;;;;;33.74;51.05;100770.66;4977400;28;69267;-40
2022/02/27 09:33:03;;;;;;;;;;;;;;;33.84;51.02;100761.84;4978410;28;65579;-41
2022/02/27 09:35:33;;;;;;;;;;;;;;;33.93;50.32;100756.84;4963896;28;69122;-40
2022/02/27 09:38:02;;;;;;;;;;;;;;;34.02;49.89;100756.22;4973970;28;66192;-41
2022/02/27 09:40:32;;;;;;;;;;;;;;;34.10;49.60;100768.66;4964965;28;70484;-41
2022/02/27 09:43:02;;;;;;;;;;;;;;;34.16;49.08;100766.84;4979203;28;66770;-41
2022/02/27 09:45:36;;;;;;;;;;;;;;;34.20;48.89;100782.41;4972043;28;70619;-41
2022/02/27 09:48:06;;;;;;;;;;;;;;;34.24;48.61;100791.75;4976198;28;64607;-41
2022/02/27 09:50:36;;;;;;;;;;;;;;;34.29;48.71;100784.75;4971270;28;70187;-40
2022/02/27 09:53:09;;;;;;;;;;;;;;;34.31;48.44;100797.03;4973536;28;66484;-42
2022/02/27 09:55:40;;;;;;;;;;;;;;;34.23;49.22;100800.97;4973191;28;70209;-41
2022/02/27 09:58:10;;;;;;;;;;;;;;;34.05;49.99;100803.94;4964400;28;65539;-42
2022/02/27 10:00:40;;;;;;;;;;;;;;;33.97;50.21;100812.47;4956075;28;70338;-41
2022/02/27 10:03:11;;;;;;;;;;;;;;;33.87;50.01;100820.41;4973045;28;65501;-39
2022/02/27 10:05:42;;;;;;;;;;;;;;;33.77;50.41;100835.47;4942481;28;71517;-42
2022/02/27 10:08:13;;;;;;;;;;;;;;;33.73;50.31;100850.63;4976913;28;65346;-41
2022/02/27 10:10:57;;;;;;;;;;;;;;;33.69;50.64;100854.06;4971996;27;70044;-42
2022/02/27 10:13:53;;;;;;;;;;;;;;;33.65;50.52;100856.44;4968504;27;66271;-41
2022/02/27 10:16:27;;;;;;;;;;;;;;;33.59;50.91;100865.56;4963165;28;70574;-40
2022/02/27 10:18:58;;;;;;;;;;;;;;;33.55;50.98;100869.81;4983727;28;66126;-41
2022/02/27 10:21:30;;;;;;;;;;;;;;;33.50;51.20;100872.41;4961152;28;70364;-43
2022/02/27 10:24:17;;;;;;;;;;;;;;;33.49;51.42;100873.44;4843196;28;3089479;-40
2022/02/27 10:26:49;;;;;;;;;;;;;;;33.45;51.35;100869.56;4962175;28;70271;-41
2022/02/27 10:29:23;;;;;;;;;;;;;;;33.43;51.44;100871.69;4979656;28;65493;-41
2022/02/27 10:31:57;;;;;;;;;;;;;;;33.41;51.47;100876.56;4968892;27;69643;-40
2022/02/27 10:34:31;;;;;;;;;;;;;;;33.38;51.61;100875.97;4964163;28;67011;-41
2022/02/27 10:37:06;;;;;;;;;;;;;;;33.35;51.96;100881.06;4964154;28;69891;-44
2022/02/27 10:39:42;;;;;;;;;;;;;;;33.33;51.68;100877.75;4970006;28;65677;-41
2022/02/27 10:42:27;;;;;;;;;;;;;;;33.33;51.80;100884.00;4964406;28;68971;-41
2022/02/27 10:45:02;;;;;;;;;;;;;;;33.26;52.25;100883.28;4975796;28;66795;-42
2022/02/27 10:47:40;;;;;;;;;;;;;;;33.25;52.26;100884.34;4977247;28;70356;-40
2022/02/27 10:50:16;;;;;;;;;;;;;;;33.25;52.39;100886.25;4975291;28;66273;-40
2022/02/27 10:52:46;;;;;;;;;;;;;;;33.22;52.42;100876.66;4975049;28;70294;-40
2022/02/27 10:55:16;;;;;;;;;;;;;;;33.21;52.63;100885.03;4987294;28;66212;-41
2022/02/27 10:57:49;;;;;;;;;;;;;;;33.21;53.05;100890.47;4973692;28;70049;-38
2022/02/27 11:00:19;;;;;;;;;;;;;;;33.11;52.68;100896.53;4976401;28;66382;-39
2022/02/27 11:02:50;;;;;;;;;;;;;;;33.07;52.61;100900.75;4977341;28;70297;-39
2022/02/27 11:05:22;;;;;;;;;;;;;;;33.04;53.20;100904.81;4977633;28;65955;-40
2022/02/27 11:07:55;;;;;;;;;;;;;;;33.06;54.19;100907.25;4971595;28;70545;-40
2022/02/27 11:10:30;;;;;;;;;;;;;;;33.05;54.67;100911.06;4970791;28;66452;-41
2022/02/27 11:13:01;;;;;;;;;;;;;;;33.06;55.01;100909.97;4977724;28;70451;-40
2022/02/27 11:15:31;;;;;;;;;;;;;;;33.06;54.98;100920.84;4976348;28;65955;-41
2022/02/27 11:18:01;;;;;;;;;;;;;;;33.07;55.35;100923.34;4971402;28;69250;-42
2022/02/27 11:20:31;;;;;;;;;;;;;;;33.06;55.17;100932.53;4975892;28;67245;-40
2022/02/27 11:23:01;;;;;;;;;;;;;;;33.08;54.99;100935.88;4975132;28;70713;-42
2022/02/27 11:25:31;;;;;;;;;;;;;;;33.05;55.32;100939.06;4975647;28;66590;-42
2022/02/27 11:28:09;;;;;;;;;;;;;;;33.06;55.40;100934.44;4974504;28;70235;-41
2022/02/27 11:30:40;;;;;;;;;;;;;;;33.08;55.90;100940.47;4974424;28;66852;-43
2022/02/27 11:33:14;;;;;;;;;;;;;;;33.08;55.82;100945.91;4972160;28;70096;-43
2022/02/27 11:35:51;;;;;;;;;;;;;;;33.04;54.87;100951.00;4972410;28;65398;-40
2022/02/27 11:38:31;;;;;;;;;;;;;;;33.05;52.75;100946.38;4971124;28;70247;-40
2022/02/27 11:41:00;;;;;;;;;;;;;;;32.98;52.58;100957.31;4972391;28;66846;-40
2022/02/27 11:43:39;;;;;;;;;;;;;;;32.94;51.83;100962.38;4973329;28;69801;-41
2022/02/27 11:46:10;;;;;;;;;;;;;;;32.86;51.15;100954.56;4974112;28;67259;-40
2022/02/27 11:48:56;;;;;;;;;;;;;;;32.84;50.75;100959.41;4976521;28;71018;-41
2022/02/27 11:51:38;;;;;;;;;;;;;;;32.81;50.50;100965.31;4966879;28;65409;-40
2022/02/27 11:54:09;;;;;;;;;;;;;;;32.77;50.21;100966.84;4972569;28;70247;-40
2022/02/27 11:56:42;;;;;;;;;;;;;;;32.75;50.21;100971.66;4966974;28;65909;-42
2022/02/27 11:59:13;;;;;;;;;;;;;;;32.71;50.00;100975.91;4960015;28;70389;-41
2022/02/27 12:01:49;;;;;;;;;;;;;;;32.67;49.64;100978.25;4974783;28;66662;-41
2022/02/27 12:04:21;;;;;;;;;;;;;;;32.67;49.92;100977.41;4971170;28;70397;-44
2022/02/27 12:06:58;;;;;;;;;;;;;;;32.64;50.50;100980.59;4969793;28;66005;-42
2022/02/27 12:09:48;;;;;;;;;;;;;;;32.65;51.40;100984.97;4972950;28;69347;-41
2022/02/27 12:12:51;;;;;;;;;;;;;;;32.68;52.18;100995.38;4974673;28;65583;-42
2022/02/27 12:15:36;;;;;;;;;;;;;;;32.66;52.43;101000.22;4957911;28;69561;-40
2022/02/27 12:18:15;;;;;;;;;;;;;;;32.66;53.12;101003.75;4976522;28;66104;-44
2022/02/27 12:21:01;;;;;;;;;;;;;;;32.64;52.96;101007.75;4977077;28;70410;-42
2022/02/27 12:23:34;;;;;;;;;;;;;;;32.64;53.02;101008.59;4955560;28;65810;-41
2022/02/27 12:26:11;;;;;;;;;;;;;;;32.63;53.24;101015.09;4968652;28;69210;-40
2022/02/27 12:28:47;;;;;;;;;;;;;;;32.63;53.40;101022.41;4967345;28;66242;-41
2022/02/27 12:31:21;;;;;;;;;;;;;;;32.64;53.68;101029.50;4976811;28;69492;-42
2022/02/27 12:33:51;;;;;;;;;;;;;;;32.63;53.42;101025.13;4972479;28;66215;-41
2022/02/27 12:36:22;;;;;;;;;;;;;;;32.60;53.33;101031.00;4959302;28;69887;-41
2022/02/27 12:39:01;;;;;;;;;;;;;;;32.61;53.62;101027.22;4971245;28;66351;-41
2022/02/27 12:41:41;;;;;;;;;;;;;;;32.57;53.59;101028.72;4972589;28;70297;-41
2022/02/27 12:44:17;;;;;;;;;;;;;;;32.58;53.43;101038.56;4972949;28;66944;-41
2022/02/27 12:46:46;;;;;;;;;;;;;;;32.56;53.63;101046.09;4975558;28;69986;-41
2022/02/27 12:52:15;;;;;;;;;;;;;;;32.52;53.44;101067.44;4972480;28;69282;-41
2022/02/27 12:54:45;;;;;;;;;;;;;;;32.51;53.20;101070.38;4977613;27;66597;-42
2022/02/27 12:57:16;;;;;;;;;;;;;;;32.51;53.39;101076.63;4963842;28;69500;-41
2022/02/27 12:59:46;;;;;;;;;;;;;;;32.49;52.08;101079.59;4971365;28;66769;-41
2022/02/27 13:02:23;;;;;;;;;;;;;;;32.45;50.80;101089.19;4975315;28;70807;-39